Terminal Aerodrome Forecast
Issued by NWS

Home | Current Version | Previous Version | Text Only | Print | Product List | Glossary On
Versions: 1 2 3 4 5 6 7 8 9 10 11 12 13 14 15 16 17 18 19 20
297
FTUS41 KBTV 090633 AAA
TAFMPV
TAF AMD
KMPV 090633Z 0907/1006 29009G18KT 3SM -SN OVC025
      TEMPO 0907/0911 2SM -SN BR OVC020
     FM091100 30012G20KT P6SM VCSH OVC035
     FM091300 30011G19KT P6SM VCSH OVC040
     FM091500 30013G23KT P6SM OVC035
     FM100300 31010G19KT P6SM BKN045=

USA.gov is the U.S. government's official web portal to all federal, state and local government web resources and services.